createdAt,value
2023-03-08T00:01:12.505Z,2.48
2023-03-08T00:03:39.026Z,2.52
2023-03-08T00:06:06.645Z,2.56
2023-03-08T00:08:33.048Z,2.54
2023-03-08T00:10:59.583Z,2.59
2023-03-08T00:13:26.205Z,2.53
2023-03-08T00:15:53.067Z,2.54
2023-03-08T00:18:19.402Z,2.48
2023-03-08T00:20:45.819Z,2.52
2023-03-08T00:23:12.182Z,2.48
2023-03-08T00:25:38.553Z,2.49
2023-03-08T00:28:05.037Z,2.53
2023-03-08T00:30:31.447Z,2.52
2023-03-08T00:32:57.773Z,2.47
2023-03-08T00:35:24.239Z,2.49
2023-03-08T00:37:50.624Z,2.53
2023-03-08T00:40:17.229Z,2.47
2023-03-08T00:42:43.861Z,2.31
2023-03-08T00:45:11.035Z,2.34
2023-03-08T00:47:38.118Z,2.27
2023-03-08T00:50:04.912Z,2.30
2023-03-08T00:52:31.228Z,2.37
2023-03-08T00:54:57.553Z,2.43
2023-03-08T00:57:23.968Z,2.52
2023-03-08T00:59:50.319Z,2.47
2023-03-08T01:02:16.756Z,2.49
2023-03-08T01:04:43.130Z,2.49
2023-03-08T01:07:09.618Z,2.50
2023-03-08T01:09:36.016Z,2.48
2023-03-08T01:12:02.358Z,2.50
2023-03-08T01:14:30.022Z,2.46
2023-03-08T01:16:56.460Z,2.42
2023-03-08T01:19:22.897Z,2.33
2023-03-08T01:21:49.328Z,2.41
2023-03-08T01:24:15.694Z,2.35
2023-03-08T01:26:42.103Z,2.37
2023-03-08T01:29:08.413Z,2.35
2023-03-08T01:31:34.944Z,2.30
2023-03-08T01:34:01.497Z,2.31
2023-03-08T01:36:28.351Z,2.35
2023-03-08T01:38:54.948Z,2.31
2023-03-08T01:41:30.387Z,2.28
2023-03-08T01:43:57.677Z,2.15
2023-03-08T01:46:36.630Z,2.04
2023-03-08T01:49:05.956Z,2.10
2023-03-08T01:51:44.349Z,2.07
2023-03-08T01:54:15.620Z,2.07
2023-03-08T01:56:44.839Z,2.14
2023-03-08T01:59:12.225Z,2.11
2023-03-08T02:01:39.235Z,2.09
2023-03-08T02:04:06.628Z,2.03
2023-03-08T02:06:33.644Z,2.06
2023-03-08T02:09:04.323Z,2.17
2023-03-08T02:11:32.546Z,2.23
2023-03-08T02:13:59.221Z,2.24
2023-03-08T02:16:25.709Z,2.21
2023-03-08T02:18:55.512Z,2.10
2023-03-08T02:21:22.770Z,2.12
2023-03-08T02:23:49.255Z,2.15
2023-03-08T02:26:16.651Z,2.00
2023-03-08T02:28:43.693Z,1.97
2023-03-08T02:31:11.985Z,2.00
2023-03-08T02:33:38.632Z,1.91
2023-03-08T02:36:08.246Z,1.91
2023-03-08T02:38:35.313Z,2.05
2023-03-08T02:41:01.668Z,2.10
2023-03-08T02:43:28.677Z,2.06
2023-03-08T02:45:55.024Z,2.05
2023-03-08T02:48:21.525Z,2.02
2023-03-08T02:50:47.921Z,2.08
2023-03-08T02:53:14.295Z,2.14
2023-03-08T02:55:40.637Z,2.20
2023-03-08T02:58:09.634Z,2.20
2023-03-08T03:00:36.946Z,2.26
2023-03-08T03:03:03.424Z,2.14
2023-03-08T03:05:29.864Z,2.16
2023-03-08T03:07:58.467Z,2.24
2023-03-08T03:10:25.213Z,2.31
2023-03-08T03:12:51.623Z,2.33
2023-03-08T03:15:18.103Z,2.29
2023-03-08T03:17:44.565Z,2.29
2023-03-08T03:20:11.568Z,2.33
2023-03-08T03:22:38.095Z,2.30
2023-03-08T03:25:05.605Z,2.31
2023-03-08T03:27:32.015Z,2.30
2023-03-08T03:29:58.641Z,2.26
2023-03-08T03:32:25.108Z,2.21
2023-03-08T03:34:51.744Z,2.31
2023-03-08T03:37:18.198Z,2.29
2023-03-08T03:39:44.852Z,2.30
2023-03-08T03:42:11.457Z,2.34
2023-03-08T03:44:38.102Z,2.36
2023-03-08T03:47:05.880Z,2.38
2023-03-08T03:49:32.364Z,2.39
2023-03-08T03:51:58.955Z,2.38
2023-03-08T03:54:25.361Z,2.42
2023-03-08T03:56:51.834Z,2.37
2023-03-08T03:59:18.215Z,2.36
2023-03-08T04:01:44.635Z,2.31
2023-03-08T04:04:11.372Z,2.36
2023-03-08T04:06:38.921Z,2.37
2023-03-08T04:09:08.251Z,2.40
2023-03-08T04:11:37.383Z,2.32
2023-03-08T04:14:04.771Z,2.33
2023-03-08T04:16:34.022Z,2.26
2023-03-08T04:19:04.542Z,2.25
2023-03-08T04:21:31.426Z,2.23
2023-03-08T04:24:00.500Z,2.25
2023-03-08T04:26:27.244Z,2.28
2023-03-08T04:28:53.702Z,2.25
2023-03-08T04:31:25.708Z,2.23
2023-03-08T04:33:53.059Z,2.21
2023-03-08T04:36:20.282Z,2.19
2023-03-08T04:38:47.594Z,2.21
2023-03-08T04:41:15.624Z,2.29
2023-03-08T04:43:50.782Z,2.28
2023-03-08T04:46:19.428Z,2.24
2023-03-08T04:48:46.173Z,2.18
2023-03-08T04:51:14.187Z,2.23
2023-03-08T04:53:41.780Z,2.18
2023-03-08T04:56:09.172Z,2.21
2023-03-08T04:58:37.303Z,2.15
2023-03-08T05:01:15.675Z,2.25
2023-03-08T05:03:42.742Z,2.17
2023-03-08T05:06:10.584Z,2.22
2023-03-08T05:08:37.089Z,2.20
2023-03-08T05:11:04.671Z,2.14
2023-03-08T05:13:34.000Z,2.22
2023-03-08T05:16:00.564Z,2.18
2023-03-08T05:18:27.018Z,2.21
2023-03-08T05:20:55.466Z,2.19
2023-03-08T05:23:22.445Z,2.11
2023-03-08T05:25:52.159Z,2.09
2023-03-08T05:28:18.516Z,2.12
2023-03-08T05:30:44.878Z,2.07
2023-03-08T05:33:11.351Z,2.09
2023-03-08T05:35:37.823Z,2.14
2023-03-08T05:38:04.259Z,2.17
2023-03-08T05:40:30.898Z,2.21
2023-03-08T05:42:57.219Z,2.17
2023-03-08T05:45:23.677Z,2.16
2023-03-08T05:47:50.046Z,2.13
2023-03-08T05:50:16.730Z,2.17
2023-03-08T05:52:43.131Z,2.14
2023-03-08T05:55:09.798Z,2.08
2023-03-08T05:57:36.646Z,2.10
2023-03-08T06:00:04.715Z,2.14
2023-03-08T06:02:31.113Z,2.13
2023-03-08T06:04:57.497Z,2.13
2023-03-08T06:07:24.004Z,2.10
2023-03-08T06:09:51.779Z,2.08
2023-03-08T06:12:18.229Z,2.11
2023-03-08T06:14:44.729Z,2.08
2023-03-08T06:17:11.075Z,2.12
2023-03-08T06:19:37.388Z,2.05
2023-03-08T06:22:03.868Z,2.13
2023-03-08T06:24:30.821Z,2.15
2023-03-08T06:26:57.244Z,2.20
2023-03-08T06:29:23.697Z,2.16
2023-03-08T06:31:50.069Z,2.08
2023-03-08T06:34:16.430Z,2.01
2023-03-08T06:36:43.168Z,2.10
2023-03-08T06:39:09.930Z,2.02
2023-03-08T06:41:36.371Z,2.07
2023-03-08T06:44:02.996Z,2.04
2023-03-08T06:46:29.384Z,2.04
2023-03-08T06:48:55.953Z,2.17
2023-03-08T06:51:22.417Z,2.21
2023-03-08T06:53:48.794Z,2.10
2023-03-08T06:56:16.711Z,2.07
2023-03-08T06:58:43.303Z,2.03
2023-03-08T07:01:10.896Z,2.08
2023-03-08T07:03:37.709Z,2.10
2023-03-08T07:06:09.901Z,2.07
2023-03-08T07:08:38.138Z,2.01
2023-03-08T07:11:04.768Z,1.94
2023-03-08T07:13:31.307Z,2.01
2023-03-08T07:15:57.798Z,1.96
2023-03-08T07:18:24.787Z,2.00
2023-03-08T07:20:57.498Z,2.07
2023-03-08T07:23:23.999Z,2.10
2023-03-08T07:25:50.546Z,2.05
2023-03-08T07:28:16.873Z,2.04
2023-03-08T07:30:48.606Z,2.06
2023-03-08T07:33:15.543Z,2.07
2023-03-08T07:35:41.942Z,2.10
2023-03-08T07:38:08.473Z,2.17
2023-03-08T07:40:34.912Z,2.20
2023-03-08T07:43:01.284Z,2.19
2023-03-08T07:45:27.730Z,2.22
2023-03-08T07:47:54.676Z,2.28
2023-03-08T07:50:22.027Z,2.28
2023-03-08T07:52:49.077Z,2.32
2023-03-08T07:55:16.000Z,2.29
2023-03-08T07:57:42.426Z,2.36
2023-03-08T08:00:10.899Z,2.42
2023-03-08T08:02:37.344Z,2.41
2023-03-08T08:05:04.640Z,2.37
2023-03-08T08:07:31.173Z,2.35
2023-03-08T08:09:57.564Z,2.43
2023-03-08T08:12:23.924Z,2.43
2023-03-08T08:14:52.378Z,2.34
2023-03-08T08:17:19.600Z,2.39
2023-03-08T08:19:46.456Z,2.39
2023-03-08T08:22:12.806Z,2.39
2023-03-08T08:24:39.288Z,2.38
2023-03-08T08:27:06.056Z,2.46
2023-03-08T08:29:32.825Z,2.44
2023-03-08T08:31:59.212Z,2.49
2023-03-08T08:34:25.847Z,2.46
2023-03-08T08:36:52.184Z,2.53
2023-03-08T08:39:18.512Z,2.52
2023-03-08T08:41:44.863Z,2.64
2023-03-08T08:44:11.206Z,2.55
2023-03-08T08:46:38.189Z,2.62
2023-03-08T08:49:07.525Z,2.62
2023-03-08T08:51:33.965Z,2.53
2023-03-08T08:54:00.613Z,2.61
2023-03-08T08:56:28.881Z,2.68
2023-03-08T08:59:00.943Z,2.75
2023-03-08T09:01:30.870Z,2.74
2023-03-08T09:03:57.842Z,2.83
2023-03-08T09:06:25.778Z,2.94
2023-03-08T09:08:55.185Z,3.03
2023-03-08T09:11:22.974Z,3.14
2023-03-08T09:13:49.582Z,3.09
2023-03-08T09:16:22.875Z,3.19
2023-03-08T09:18:50.028Z,3.16
2023-03-08T09:21:16.863Z,3.16
2023-03-08T09:23:43.600Z,3.20
2023-03-08T09:26:10.912Z,3.25
2023-03-08T09:28:37.478Z,3.31
2023-03-08T09:31:14.791Z,3.28
2023-03-08T09:33:44.151Z,3.34
2023-03-08T09:36:11.048Z,3.44
2023-03-08T09:38:37.749Z,3.40
2023-03-08T09:41:19.302Z,3.49
2023-03-08T09:43:59.936Z,3.52
2023-03-08T09:46:35.996Z,3.50
2023-03-08T09:49:07.087Z,3.49
2023-03-08T09:51:38.400Z,3.54
2023-03-08T09:54:13.981Z,3.61
2023-03-08T09:56:48.071Z,3.51
2023-03-08T09:59:44.560Z,3.55
2023-03-08T10:02:32.683Z,3.55
2023-03-08T10:05:13.756Z,3.52
2023-03-08T10:07:56.644Z,3.56
2023-03-08T10:10:47.071Z,3.55
2023-03-08T10:13:25.572Z,3.49
2023-03-08T10:15:57.720Z,3.53
2023-03-08T10:18:31.771Z,3.55
2023-03-08T10:21:00.963Z,3.49
2023-03-08T10:23:32.392Z,3.44
2023-03-08T10:26:00.316Z,3.42
2023-03-08T10:28:27.776Z,3.43
2023-03-08T10:30:59.950Z,3.39
2023-03-08T10:33:32.831Z,3.49
2023-03-08T10:36:17.986Z,3.60
2023-03-08T10:38:55.212Z,3.60
2023-03-08T10:41:21.890Z,3.66
2023-03-08T10:43:53.925Z,3.77
2023-03-08T10:46:22.896Z,3.70
2023-03-08T10:48:49.515Z,3.69
2023-03-08T10:51:21.504Z,3.76
2023-03-08T10:53:56.168Z,3.72
2023-03-08T10:56:31.194Z,3.78
2023-03-08T10:58:58.492Z,3.85
2023-03-08T11:01:31.090Z,3.92
2023-03-08T11:04:16.238Z,3.98
2023-03-08T11:06:43.189Z,3.90
2023-03-08T11:09:29.727Z,4.03
2023-03-08T11:12:00.579Z,4.03
2023-03-08T11:14:28.434Z,4.07
2023-03-08T11:17:17.982Z,4.05
2023-03-08T11:20:11.143Z,4.08
2023-03-08T11:22:59.015Z,4.14
2023-03-08T11:25:57.301Z,4.14
2023-03-08T11:28:48.597Z,4.19
2023-03-08T11:31:18.079Z,4.23
2023-03-08T11:34:21.574Z,4.29
2023-03-08T11:36:56.749Z,4.23
2023-03-08T11:39:28.941Z,4.17
2023-03-08T11:42:16.513Z,4.12
2023-03-08T11:45:19.419Z,4.08
2023-03-08T11:47:57.372Z,3.95
2023-03-08T11:50:28.673Z,3.99
2023-03-08T11:53:13.334Z,4.07
2023-03-08T11:55:52.113Z,4.16
2023-03-08T11:58:28.566Z,4.20
2023-03-08T12:01:01.269Z,4.30
2023-03-08T12:03:36.074Z,4.42
2023-03-08T12:06:29.093Z,4.43
2023-03-08T12:09:08.750Z,4.53
2023-03-08T12:11:41.780Z,4.65
2023-03-08T12:14:22.926Z,4.67
2023-03-08T12:17:02.495Z,4.66
2023-03-08T12:19:42.034Z,4.65
2023-03-08T12:22:39.183Z,4.63
2023-03-08T12:25:15.710Z,4.79
2023-03-08T12:28:11.805Z,4.93
2023-03-08T12:31:24.869Z,5.08
2023-03-08T12:33:54.069Z,5.08
2023-03-08T12:36:24.308Z,5.20
2023-03-08T12:38:56.593Z,5.09
2023-03-08T12:41:28.990Z,5.08
2023-03-08T12:44:22.609Z,5.16
2023-03-08T12:47:02.452Z,5.22
2023-03-08T12:49:33.916Z,5.25
2023-03-08T12:52:06.812Z,5.33
2023-03-08T12:54:35.394Z,5.42
2023-03-08T12:57:13.905Z,5.44
2023-03-08T12:59:41.215Z,5.54
2023-03-08T13:02:30.971Z,5.45
2023-03-08T13:05:15.656Z,5.35
2023-03-08T13:08:08.857Z,5.28
2023-03-08T13:10:52.195Z,5.26
2023-03-08T13:13:38.060Z,5.28
2023-03-08T13:16:19.308Z,5.35
2023-03-08T13:18:48.601Z,5.45
2023-03-08T13:21:14.976Z,5.35
2023-03-08T13:23:58.443Z,5.30
2023-03-08T13:26:54.357Z,5.36
2023-03-08T13:29:21.417Z,5.44
2023-03-08T13:31:48.469Z,5.51
2023-03-08T13:34:23.893Z,5.52
2023-03-08T13:36:50.271Z,5.48
2023-03-08T13:39:25.294Z,5.48
2023-03-08T13:41:52.180Z,5.42
2023-03-08T13:44:23.119Z,5.50
2023-03-08T13:46:54.091Z,5.53
2023-03-08T13:49:25.686Z,5.55
2023-03-08T13:51:55.619Z,5.52
2023-03-08T13:54:29.629Z,5.57
2023-03-08T13:56:59.872Z,5.59
2023-03-08T13:59:27.169Z,5.67
2023-03-08T14:01:54.458Z,5.65
2023-03-08T14:04:24.073Z,5.71
2023-03-08T14:07:19.980Z,5.77
2023-03-08T14:09:46.339Z,5.78
2023-03-08T14:12:16.924Z,5.83
2023-03-08T14:14:46.640Z,5.63
2023-03-08T14:17:24.959Z,5.59
2023-03-08T14:20:16.683Z,5.72
2023-03-08T14:22:47.659Z,5.73
2023-03-08T14:25:40.348Z,5.67
2023-03-08T14:28:39.030Z,5.80
2023-03-08T14:31:27.405Z,5.66
2023-03-08T14:33:57.170Z,5.68
2023-03-08T14:36:24.148Z,5.72
2023-03-08T14:38:50.774Z,5.65
2023-03-08T14:41:17.391Z,5.73
2023-03-08T14:43:49.407Z,5.71
2023-03-08T14:46:20.326Z,5.63
2023-03-08T14:48:57.356Z,5.48
2023-03-08T14:51:42.658Z,5.55
2023-03-08T14:54:32.766Z,5.64
2023-03-08T14:57:15.235Z,5.75
2023-03-08T14:59:42.666Z,5.67
2023-03-08T15:02:13.681Z,5.62
2023-03-08T15:04:40.907Z,5.65
2023-03-08T15:07:08.461Z,5.63
2023-03-08T15:09:34.994Z,5.47
2023-03-08T15:12:01.714Z,5.52
2023-03-08T15:14:30.506Z,5.52
2023-03-08T15:16:58.130Z,5.51
2023-03-08T15:19:24.829Z,5.52
2023-03-08T15:21:51.464Z,5.54
2023-03-08T15:24:18.993Z,5.55
2023-03-08T15:26:45.913Z,5.60
2023-03-08T15:29:26.656Z,5.43
2023-03-08T15:31:53.491Z,5.42
2023-03-08T15:34:20.171Z,5.47
2023-03-08T15:36:48.245Z,5.50
2023-03-08T15:39:14.847Z,5.53
2023-03-08T15:41:41.272Z,5.47
2023-03-08T15:44:08.065Z,5.37
2023-03-08T15:46:34.660Z,5.31
2023-03-08T15:49:01.013Z,5.36
2023-03-08T15:51:35.864Z,5.31
2023-03-08T15:54:04.239Z,5.16
2023-03-08T15:56:30.658Z,5.25
2023-03-08T15:58:57.131Z,5.20
2023-03-08T16:01:26.182Z,5.19
2023-03-08T16:03:54.194Z,5.34
2023-03-08T16:06:21.123Z,5.35
2023-03-08T16:08:47.508Z,5.35
2023-03-08T16:11:17.361Z,5.31
2023-03-08T16:13:44.075Z,5.35
2023-03-08T16:16:10.868Z,5.40
2023-03-08T16:18:40.259Z,5.46
2023-03-08T16:21:08.987Z,5.42
2023-03-08T16:23:36.214Z,5.35
2023-03-08T16:26:15.103Z,5.45
2023-03-08T16:28:43.545Z,5.49
2023-03-08T16:31:09.935Z,5.47
2023-03-08T16:33:36.659Z,5.46
2023-03-08T16:36:03.830Z,5.27
2023-03-08T16:38:30.302Z,5.25
2023-03-08T16:41:11.493Z,5.36
2023-03-08T16:43:46.267Z,5.34
2023-03-08T16:46:16.098Z,5.24
2023-03-08T16:48:42.656Z,5.30
2023-03-08T16:51:13.832Z,5.24
2023-03-08T16:53:40.353Z,5.24
2023-03-08T16:56:07.069Z,5.16
2023-03-08T16:58:33.408Z,5.15
2023-03-08T17:00:59.800Z,5.16
2023-03-08T17:03:26.361Z,5.07
2023-03-08T17:05:52.838Z,5.01
2023-03-08T17:08:19.372Z,5.09
2023-03-08T17:10:45.775Z,5.13
2023-03-08T17:13:12.550Z,5.18
2023-03-08T17:15:44.207Z,5.18
2023-03-08T17:18:10.850Z,5.13
2023-03-08T17:20:41.817Z,5.26
2023-03-08T17:23:10.400Z,5.24
2023-03-08T17:25:40.996Z,5.31
2023-03-08T17:28:08.788Z,5.25
2023-03-08T17:30:35.861Z,5.25
2023-03-08T17:33:02.368Z,5.14
2023-03-08T17:35:28.848Z,5.14
2023-03-08T17:37:55.280Z,5.12
2023-03-08T17:40:21.948Z,5.11
2023-03-08T17:42:48.362Z,5.04
2023-03-08T17:45:16.048Z,5.19
2023-03-08T17:47:42.500Z,5.17
2023-03-08T17:50:11.282Z,5.04
2023-03-08T17:52:37.612Z,5.00
2023-03-08T17:55:04.292Z,5.14
2023-03-08T17:57:30.985Z,5.21
2023-03-08T17:59:57.400Z,5.17
2023-03-08T18:02:24.263Z,5.09
2023-03-08T18:04:51.101Z,5.10
2023-03-08T18:07:18.807Z,5.20
2023-03-08T18:09:45.944Z,5.07
2023-03-08T18:12:12.479Z,5.14
2023-03-08T18:14:40.128Z,5.09
2023-03-08T18:17:07.777Z,4.99
2023-03-08T18:19:34.264Z,5.04
2023-03-08T18:22:00.746Z,5.13
2023-03-08T18:24:27.636Z,5.13
2023-03-08T18:26:54.111Z,5.03
2023-03-08T18:29:20.492Z,5.04
2023-03-08T18:31:47.060Z,5.08
2023-03-08T18:34:13.419Z,5.12
2023-03-08T18:36:40.801Z,5.11
2023-03-08T18:39:12.030Z,5.11
2023-03-08T18:41:38.903Z,5.13
2023-03-08T18:44:05.911Z,5.02
2023-03-08T18:46:33.566Z,4.97
2023-03-08T18:49:03.331Z,4.99
2023-03-08T18:51:31.734Z,5.00
2023-03-08T18:53:58.876Z,5.07
2023-03-08T18:56:26.126Z,5.09
2023-03-08T18:58:58.392Z,5.11
2023-03-08T19:01:25.322Z,5.18
2023-03-08T19:03:52.087Z,5.18
2023-03-08T19:06:18.523Z,5.18
2023-03-08T19:08:44.890Z,5.17
2023-03-08T19:11:13.493Z,5.23
2023-03-08T19:13:41.122Z,5.25
2023-03-08T19:16:21.057Z,5.28
2023-03-08T19:18:48.781Z,5.19
2023-03-08T19:21:17.620Z,5.27
2023-03-08T19:23:44.277Z,5.31
2023-03-08T19:26:46.120Z,5.28
2023-03-08T19:29:30.339Z,5.21
2023-03-08T19:32:05.440Z,5.15
2023-03-08T19:34:34.616Z,5.14
2023-03-08T19:37:01.621Z,5.18
2023-03-08T19:39:33.393Z,5.15
2023-03-08T19:42:12.350Z,5.20
2023-03-08T19:44:38.753Z,5.22
2023-03-08T19:47:05.413Z,5.28
2023-03-08T19:49:35.560Z,5.24
2023-03-08T19:52:05.202Z,5.23
2023-03-08T19:54:31.772Z,5.35
2023-03-08T19:56:59.014Z,5.36
2023-03-08T19:59:25.789Z,5.36
2023-03-08T20:01:54.471Z,5.38
2023-03-08T20:04:21.910Z,5.31
2023-03-08T20:06:49.380Z,5.35
2023-03-08T20:09:21.294Z,5.42
2023-03-08T20:11:50.500Z,5.30
2023-03-08T20:14:16.869Z,5.29
2023-03-08T20:16:43.268Z,5.36
2023-03-08T20:19:09.694Z,5.35
2023-03-08T20:21:37.706Z,5.30
2023-03-08T20:24:04.162Z,5.33
2023-03-08T20:26:33.065Z,5.22
2023-03-08T20:29:00.450Z,5.22
2023-03-08T20:31:29.106Z,5.29
2023-03-08T20:33:55.797Z,5.34
2023-03-08T20:36:23.631Z,5.35
2023-03-08T20:38:50.021Z,5.36
2023-03-08T20:41:18.992Z,5.40
2023-03-08T20:43:47.180Z,5.41
2023-03-08T20:46:16.306Z,5.38
2023-03-08T20:48:44.791Z,5.38
2023-03-08T20:51:14.201Z,5.33
2023-03-08T20:53:41.980Z,5.41
2023-03-08T20:56:11.683Z,5.45
2023-03-08T20:58:38.469Z,5.43
2023-03-08T21:01:17.858Z,5.45
2023-03-08T21:03:45.624Z,5.44
2023-03-08T21:06:14.747Z,5.46
2023-03-08T21:08:41.223Z,5.40
2023-03-08T21:11:07.910Z,5.38
2023-03-08T21:13:34.331Z,5.36
2023-03-08T21:16:06.144Z,5.31
2023-03-08T21:18:32.659Z,5.34
2023-03-08T21:20:59.582Z,5.37
2023-03-08T21:23:26.419Z,5.36
2023-03-08T21:25:53.630Z,5.34
2023-03-08T21:28:21.587Z,5.31
2023-03-08T21:30:48.735Z,5.31
2023-03-08T21:33:15.396Z,5.42
2023-03-08T21:35:42.708Z,5.42
2023-03-08T21:38:09.450Z,5.46
2023-03-08T21:40:41.882Z,5.43
2023-03-08T21:43:08.858Z,5.40
2023-03-08T21:45:42.515Z,5.43
2023-03-08T21:48:09.771Z,5.40
2023-03-08T21:50:40.262Z,5.39
2023-03-08T21:53:08.213Z,5.43
2023-03-08T21:55:38.267Z,5.46
2023-03-08T21:58:05.687Z,5.50
2023-03-08T22:00:32.352Z,5.52
2023-03-08T22:02:59.279Z,5.42
2023-03-08T22:05:25.907Z,5.47
2023-03-08T22:07:52.389Z,5.40
2023-03-08T22:10:20.275Z,5.47
2023-03-08T22:12:47.394Z,5.52
2023-03-08T22:15:15.898Z,5.51
2023-03-08T22:17:43.094Z,5.49
2023-03-08T22:20:11.042Z,5.48
2023-03-08T22:22:38.489Z,5.45
2023-03-08T22:25:06.540Z,5.52
2023-03-08T22:27:33.389Z,5.53
2023-03-08T22:29:59.916Z,5.56
2023-03-08T22:32:26.644Z,5.61
2023-03-08T22:34:53.059Z,5.63
2023-03-08T22:37:19.489Z,5.69
2023-03-08T22:39:45.965Z,5.67
2023-03-08T22:42:12.410Z,5.72
2023-03-08T22:44:38.813Z,5.69
2023-03-08T22:47:05.461Z,5.61
2023-03-08T22:49:31.903Z,5.60
2023-03-08T22:51:58.265Z,5.63
2023-03-08T22:54:24.850Z,5.71
2023-03-08T22:56:51.358Z,5.69
2023-03-08T22:59:17.773Z,5.78
2023-03-08T23:01:44.280Z,5.86
2023-03-08T23:04:13.255Z,5.83
2023-03-08T23:06:40.003Z,5.79
2023-03-08T23:09:10.078Z,5.83
2023-03-08T23:11:37.370Z,5.76
2023-03-08T23:14:04.486Z,5.78
2023-03-08T23:16:31.128Z,5.74
2023-03-08T23:18:57.786Z,5.81
2023-03-08T23:21:26.216Z,5.88
2023-03-08T23:23:52.710Z,5.85
2023-03-08T23:26:23.839Z,5.81
2023-03-08T23:28:50.484Z,5.85
2023-03-08T23:31:20.421Z,5.86
2023-03-08T23:33:47.517Z,5.87
2023-03-08T23:36:16.497Z,5.88
2023-03-08T23:38:43.910Z,5.85
2023-03-08T23:41:11.975Z,5.90
2023-03-08T23:43:39.361Z,5.87
2023-03-08T23:46:14.611Z,5.92
2023-03-08T23:48:41.768Z,5.93
2023-03-08T23:51:11.902Z,5.93
2023-03-08T23:53:38.703Z,6.00
2023-03-08T23:56:05.872Z,6.05
2023-03-08T23:58:32.887Z,6.07
